Time;durP1;ratioP1;P1;durP2;ratioP2;P2;SDS_P1;SDS_P2;PMS_P1;PMS_P2;Temp;Humidity;BMP_temperature;BMP_pressure;BME280_temperature;BME280_humidity;BME280_pressure;Samples;Min_cycle;Max_cycle;Signal;HPM_P1;HPM_P2
2021/04/14 00:00:57;;;;;;;8.35;6.93;;;11.10;52.30;;;;;;4996291;28;20480;-78
2021/04/14 00:03:27;;;;;;;7.22;6.60;;;11.00;52.20;;;;;;5011889;28;20065;-79
2021/04/14 00:05:54;;;;;;;8.50;7.00;;;11.00;52.20;;;;;;4995673;28;20051;-79
2021/04/14 00:08:20;;;;;;;8.10;7.30;;;11.00;52.30;;;;;;4995318;28;20037;-79
2021/04/14 00:10:48;;;;;;;7.22;6.63;;;10.90;52.20;;;;;;5012035;28;20231;-80
2021/04/14 00:13:17;;;;;;;7.93;7.15;;;10.90;52.20;;;;;;5011557;28;20106;-80
2021/04/14 00:15:49;;;;;;;7.88;7.18;;;10.80;52.10;;;;;;4995862;28;20447;-80
2021/04/14 00:18:15;;;;;;;7.53;6.88;;;10.80;52.20;;;;;;5010996;28;20472;-81
2021/04/14 00:20:42;;;;;;;7.90;7.20;;;10.80;52.30;;;;;;5011810;28;20033;-80
2021/04/14 00:23:08;;;;;;;7.47;6.63;;;10.70;52.20;;;;;;4994820;28;20057;-80
2021/04/14 00:25:38;;;;;;;8.02;7.32;;;10.70;52.20;;;;;;4996106;28;20370;-80
2021/04/14 00:28:04;;;;;;;8.93;7.88;;;10.60;52.00;;;;;;4994744;28;20641;-80
2021/04/14 00:30:31;;;;;;;7.90;6.95;;;10.60;52.10;;;;;;5011998;28;20496;-80
2021/04/14 00:32:57;;;;;;;8.15;7.35;;;10.50;52.00;;;;;;4994819;28;20049;-80
2021/04/14 00:35:25;;;;;;;8.13;7.35;;;10.50;52.10;;;;;;4995513;28;20076;-80
2021/04/14 00:37:52;;;;;;;8.07;7.20;;;10.50;52.20;;;;;;4996038;28;20045;-80
2021/04/14 00:40:25;;;;;;;9.05;7.57;;;10.40;52.00;;;;;;5010677;28;20371;-80
2021/04/14 00:42:52;;;;;;;7.95;7.25;;;10.40;52.10;;;;;;4995343;28;20252;-80
2021/04/14 00:45:18;;;;;;;7.78;7.00;;;10.30;52.00;;;;;;5011681;28;20032;-80
2021/04/14 00:47:44;;;;;;;8.70;7.90;;;10.30;52.00;;;;;;4995563;28;20120;-80
2021/04/14 00:50:12;;;;;;;8.95;7.82;;;10.30;52.10;;;;;;5011940;28;20029;-80
2021/04/14 00:52:38;;;;;;;8.98;7.82;;;10.20;52.00;;;;;;4995114;28;20041;-80
2021/04/14 00:55:08;;;;;;;8.85;8.02;;;10.20;52.00;;;;;;5010745;28;20064;-80
2021/04/14 00:57:34;;;;;;;8.88;8.13;;;10.10;52.00;;;;;;5010727;28;20457;-80
2021/04/14 01:00:00;;;;;;;8.25;7.43;;;10.00;51.80;;;;;;5010922;28;20038;-80
2021/04/14 01:02:28;;;;;;;8.90;8.10;;;10.00;51.90;;;;;;4994980;28;20112;-80
2021/04/14 01:04:54;;;;;;;10.93;8.15;;;10.00;51.90;;;;;;5010684;28;20558;-80
2021/04/14 01:07:21;;;;;;;8.68;7.88;;;9.90;51.80;;;;;;4994645;28;20037;-80
2021/04/14 01:09:47;;;;;;;7.88;7.18;;;9.90;51.90;;;;;;5010078;28;20124;-80
2021/04/14 01:12:13;;;;;;;8.80;7.57;;;9.80;51.80;;;;;;5010848;28;20052;-80
2021/04/14 01:14:39;;;;;;;8.20;7.22;;;9.80;51.80;;;;;;5009825;28;20059;-81
2021/04/14 01:17:06;;;;;;;8.82;8.00;;;9.70;51.80;;;;;;5011016;28;20044;-81
2021/04/14 01:19:32;;;;;;;8.68;7.88;;;9.70;51.80;;;;;;4994000;28;20349;-82
2021/04/14 01:21:58;;;;;;;10.88;8.57;;;9.70;51.90;;;;;;5027051;28;20030;-81
2021/04/14 01:24:24;;;;;;;8.60;7.70;;;9.70;52.00;;;;;;5020661;28;20452;-82
2021/04/14 01:26:51;;;;;;;8.65;7.70;;;9.60;51.80;;;;;;5010168;28;20194;-82
2021/04/14 01:29:17;;;;;;;7.95;7.25;;;9.60;52.40;;;;;;5027077;28;20128;-82
2021/04/14 01:31:43;;;;;;;8.95;8.05;;;9.60;52.00;;;;;;4995039;28;20493;-81
2021/04/14 01:34:16;;;;;;;9.15;7.88;;;9.50;51.80;;;;;;5006818;28;20132;-81
2021/04/14 01:36:42;;;;;;;8.57;7.68;;;9.50;51.90;;;;;;5019508;28;20497;-80
2021/04/14 01:39:10;;;;;;;8.45;7.65;;;9.40;51.70;;;;;;4995165;28;20036;-80
2021/04/14 01:41:37;;;;;;;8.38;7.32;;;9.30;51.70;;;;;;5012253;28;20041;-79
2021/04/14 01:44:04;;;;;;;8.80;8.00;;;9.30;51.70;;;;;;5031351;28;20078;-80
2021/04/14 01:46:31;;;;;;;8.73;7.75;;;9.20;51.50;;;;;;4997145;28;20026;-80
2021/04/14 01:48:57;;;;;;;8.48;7.70;;;9.20;51.60;;;;;;5000803;28;20022;-80
2021/04/14 01:51:24;;;;;;;7.07;6.50;;;9.10;51.50;;;;;;5011055;28;20041;-80
2021/04/14 01:53:50;;;;;;;8.32;7.60;;;9.10;51.50;;;;;;5011377;28;20026;-80
2021/04/14 01:56:16;;;;;;;8.15;7.35;;;9.10;52.20;;;;;;5010363;28;20036;-81
2021/04/14 01:58:43;;;;;;;8.25;7.45;;;9.00;51.40;;;;;;5002287;28;20034;-80
2021/04/14 02:01:10;;;;;;;8.18;7.43;;;9.00;51.50;;;;;;4997462;28;20041;-81
2021/04/14 02:03:40;;;;;;;8.40;7.68;;;8.90;51.40;;;;;;5014295;28;20128;-80
2021/04/14 02:06:09;;;;;;;8.05;7.32;;;8.90;51.50;;;;;;4998258;28;20124;-81
2021/04/14 02:08:35;;;;;;;8.80;8.00;;;8.90;51.50;;;;;;4998086;28;20052;-80
2021/04/14 02:11:03;;;;;;;8.23;7.40;;;8.80;51.30;;;;;;4997620;28;20038;-81
2021/04/14 02:13:32;;;;;;;8.43;7.63;;;8.80;51.40;;;;;;5014735;28;20037;-81
2021/04/14 02:15:59;;;;;;;8.90;7.68;;;8.70;51.30;;;;;;5014252;28;20056;-80
2021/04/14 02:18:25;;;;;;;8.63;7.53;;;8.70;51.40;;;;;;5014515;28;20384;-80
2021/04/14 02:20:52;;;;;;;8.52;7.60;;;8.60;51.30;;;;;;5014158;28;20140;-80
2021/04/14 02:23:23;;;;;;;11.65;8.48;;;8.60;51.30;;;;;;5014256;28;20465;-81
2021/04/14 02:25:49;;;;;;;9.00;8.13;;;8.60;51.40;;;;;;5013446;28;20091;-81
2021/04/14 02:28:16;;;;;;;7.68;6.85;;;8.50;51.30;;;;;;5013127;28;20025;-82
2021/04/14 02:30:43;;;;;;;7.93;7.15;;;8.50;51.40;;;;;;5014075;28;20489;-82
2021/04/14 02:33:10;;;;;;;8.05;7.03;;;8.40;51.20;;;;;;5014008;28;20083;-82
2021/04/14 02:35:38;;;;;;;7.97;7.00;;;8.40;51.40;;;;;;5013508;28;20061;-82
2021/04/14 02:38:06;;;;;;;8.50;7.60;;;8.40;51.40;;;;;;5013887;28;20116;-82
2021/04/14 02:40:32;;;;;;;7.93;7.03;;;8.30;51.20;;;;;;5013856;28;20041;-82
2021/04/14 02:42:58;;;;;;;9.20;7.55;;;8.30;51.30;;;;;;5014039;28;20056;-81
2021/04/14 02:45:28;;;;;;;8.50;7.72;;;8.30;51.30;;;;;;5012909;28;20141;-80
2021/04/14 02:47:54;;;;;;;8.27;7.50;;;8.30;51.40;;;;;;5013209;28;20068;-81
2021/04/14 02:50:20;;;;;;;7.95;7.20;;;8.20;51.20;;;;;;5012827;28;20140;-80
2021/04/14 02:52:47;;;;;;;9.52;8.07;;;8.20;51.20;;;;;;5012438;28;20087;-80
2021/04/14 02:55:15;;;;;;;9.75;8.82;;;8.20;51.30;;;;;;4997131;28;20056;-80
2021/04/14 02:57:41;;;;;;;9.45;8.52;;;8.10;51.10;;;;;;5012731;28;20077;-80
2021/04/14 03:00:09;;;;;;;7.72;7.03;;;8.10;51.20;;;;;;4996900;28;20045;-79
2021/04/14 03:02:35;;;;;;;9.30;7.78;;;8.00;51.10;;;;;;5013503;28;20025;-80
2021/04/14 03:05:03;;;;;;;7.75;6.95;;;8.00;51.10;;;;;;5013203;28;20034;-80
2021/04/14 03:07:29;;;;;;;9.00;8.10;;;8.00;51.10;;;;;;5013322;28;20120;-79
2021/04/14 03:09:55;;;;;;;7.88;7.15;;;8.00;51.20;;;;;;4996836;28;20106;-80
2021/04/14 03:12:21;;;;;;;8.70;7.90;;;7.90;51.10;;;;;;5013404;28;20496;-80
2021/04/14 03:14:47;;;;;;;8.60;7.80;;;7.90;51.10;;;;;;5013474;28;20100;-80
2021/04/14 03:17:13;;;;;;;8.23;7.38;;;7.90;51.20;;;;;;5031299;28;20044;-81
2021/04/14 03:19:39;;;;;;;8.55;7.68;;;7.80;51.00;;;;;;5015555;28;20041;-80
2021/04/14 04:04:30;;;;;;;8.27;7.30;;;7.30;50.30;;;;;;5015280;28;20036;-78
2021/04/14 04:06:56;;;;;;;8.20;7.35;;;7.20;50.10;;;;;;4996686;28;20421;-80
2021/04/14 04:09:22;;;;;;;8.65;7.75;;;7.20;50.30;;;;;;4980693;28;20559;-80
2021/04/14 04:11:48;;;;;;;9.00;8.13;;;7.10;50.30;;;;;;4996914;28;20050;-78
2021/04/14 04:14:14;;;;;;;9.07;8.15;;;7.10;50.40;;;;;;4997200;28;20061;-79
2021/04/14 04:16:40;;;;;;;8.77;7.47;;;7.00;50.20;;;;;;4996459;28;20088;-79
2021/04/14 04:19:06;;;;;;;9.40;8.50;;;7.00;50.30;;;;;;4996524;28;20496;-80
2021/04/14 04:21:31;;;;;;;8.60;7.80;;;7.00;50.40;;;;;;5001494;28;20037;-79
2021/04/14 04:23:57;;;;;;;9.02;8.13;;;7.00;50.50;;;;;;5000139;28;20033;-80
2021/04/14 04:26:23;;;;;;;8.85;7.95;;;7.00;50.60;;;;;;4999706;28;20029;-80
2021/04/14 04:28:50;;;;;;;9.45;8.35;;;6.90;50.40;;;;;;5026533;28;20401;-79
2021/04/14 04:31:16;;;;;;;9.35;8.35;;;6.90;50.50;;;;;;4998617;28;20040;-80
2021/04/14 04:33:41;;;;;;;10.02;8.05;;;6.90;50.60;;;;;;5026758;28;20029;-80
2021/04/14 04:36:08;;;;;;;9.40;8.43;;;6.90;50.60;;;;;;4999494;28;20139;-80
2021/04/14 04:38:34;;;;;;;11.15;8.57;;;6.80;50.50;;;;;;4999674;28;20120;-80
2021/04/14 04:41:01;;;;;;;8.98;7.90;;;6.80;50.60;;;;;;5015846;28;20037;-80
2021/04/14 04:43:27;;;;;;;10.20;7.85;;;6.80;50.60;;;;;;4999451;28;20120;-79
2021/04/14 04:45:53;;;;;;;10.43;7.95;;;6.80;50.60;;;;;;5016058;28;20033;-79
2021/04/14 04:48:19;;;;;;;9.32;8.43;;;6.80;50.70;;;;;;5005408;28;20427;-80
2021/04/14 04:50:45;;;;;;;8.55;7.05;;;6.80;50.70;;;;;;4998039;28;20314;-78
2021/04/14 04:53:17;;;;;;;9.02;7.88;;;6.80;50.70;;;;;;5019085;28;20048;-79
2021/04/14 04:55:45;;;;;;;10.95;8.20;;;6.70;50.60;;;;;;5018810;28;20045;-79
2021/04/14 04:58:11;;;;;;;8.90;7.82;;;6.70;50.60;;;;;;5007183;28;20400;-79
2021/04/14 05:00:38;;;;;;;10.38;9.05;;;6.70;50.70;;;;;;5023961;28;20606;-78
2021/04/14 05:03:05;;;;;;;9.82;8.88;;;6.70;50.70;;;;;;5018895;28;20117;-78
2021/04/14 05:05:37;;;;;;;9.43;8.43;;;6.70;50.80;;;;;;4980420;28;20026;-79
2021/04/14 05:08:05;;;;;;;10.93;8.85;;;6.70;50.90;;;;;;5025988;28;20034;-77
2021/04/14 05:10:32;;;;;;;9.30;8.40;;;6.70;50.80;;;;;;4996765;28;20060;-80
2021/04/14 05:12:58;;;;;;;9.40;7.88;;;6.70;50.80;;;;;;5012607;28;20503;-77
2021/04/14 05:15:31;;;;;;;9.70;8.75;;;6.70;50.90;;;;;;5005202;28;20041;-79
2021/04/14 05:17:59;;;;;;;10.05;9.05;;;6.70;51.00;;;;;;5007321;28;20021;-79
2021/04/14 05:20:26;;;;;;;9.50;8.52;;;6.70;50.90;;;;;;5003885;28;20365;-79
2021/04/14 05:22:52;;;;;;;9.43;8.52;;;6.70;50.90;;;;;;5020965;28;20053;-77
2021/04/14 05:25:22;;;;;;;12.60;9.52;;;6.60;50.80;;;;;;4993899;28;20040;-78
2021/04/14 05:27:51;;;;;;;10.63;8.98;;;6.70;51.00;;;;;;4994093;28;20172;-79
2021/04/14 05:30:18;;;;;;;13.98;9.85;;;6.60;50.80;;;;;;4993990;28;20033;-82
2021/04/14 05:32:44;;;;;;;10.90;9.80;;;6.60;50.80;;;;;;4993934;28;20033;-78
2021/04/14 05:35:11;;;;;;;10.48;9.25;;;6.60;50.90;;;;;;4994213;28;20026;-78
2021/04/14 05:37:37;;;;;;;11.10;9.20;;;6.70;51.10;;;;;;5010311;28;20029;-83
2021/04/14 05:40:06;;;;;;;12.05;8.82;;;6.70;51.10;;;;;;5009526;28;20034;-81
2021/04/14 05:42:44;;;;;;;10.98;9.95;;;6.70;51.10;;;;;;4992332;28;20053;-78
2021/04/14 05:45:19;;;;;;;9.82;8.82;;;6.70;51.10;;;;;;5010720;28;20029;-82
2021/04/14 05:47:45;;;;;;;11.77;9.27;;;6.80;51.20;;;;;;5010578;28;20021;-83
2021/04/14 05:50:14;;;;;;;10.95;9.93;;;6.80;51.10;;;;;;4989865;28;20049;-79
2021/04/14 05:52:40;;;;;;;10.68;9.57;;;6.80;51.20;;;;;;4993468;28;20095;-82
2021/04/14 05:55:07;;;;;;;10.15;8.95;;;6.80;51.10;;;;;;5000123;28;20469;-79
2021/04/14 05:57:34;;;;;;;10.65;9.18;;;6.80;51.10;;;;;;5009882;28;20121;-80
2021/04/14 06:00:00;;;;;;;9.23;8.30;;;6.90;51.40;;;;;;5009160;28;20030;-79
2021/04/14 06:02:26;;;;;;;9.48;8.40;;;6.90;51.40;;;;;;5011643;28;20339;-79
2021/04/14 06:04:52;;;;;;;11.90;9.57;;;6.90;51.50;;;;;;4993465;28;20411;-78
2021/04/14 06:07:19;;;;;;;11.50;9.70;;;7.00;51.90;;;;;;5003915;28;20033;-77
2021/04/14 06:09:47;;;;;;;10.18;9.05;;;7.10;52.30;;;;;;5007315;28;20041;-78
2021/04/14 06:12:14;;;;;;;10.55;9.55;;;7.20;52.60;;;;;;4991473;28;20523;-78
2021/04/14 06:14:40;;;;;;;11.90;9.77;;;7.20;52.50;;;;;;4982695;28;20060;-79
2021/04/14 06:17:06;;;;;;;9.95;8.95;;;7.30;52.70;;;;;;4990980;28;20061;-78
2021/04/14 06:19:32;;;;;;;11.43;10.18;;;7.40;52.90;;;;;;5007611;28;20025;-80
2021/04/14 06:21:58;;;;;;;10.50;9.45;;;7.50;53.00;;;;;;4975016;28;20586;-78
2021/04/14 06:24:25;;;;;;;13.48;9.93;;;7.60;53.20;;;;;;5007653;28;20029;-79
2021/04/14 06:26:54;;;;;;;12.30;11.00;;;7.70;53.30;;;;;;4991104;28;20034;-77
2021/04/14 06:29:21;;;;;;;10.77;9.73;;;7.80;53.40;;;;;;4990629;28;20042;-78
2021/04/14 06:31:47;;;;;;;13.27;10.10;;;7.90;53.50;;;;;;5008558;28;20036;-78
2021/04/14 06:34:20;;;;;;;12.88;9.82;;;8.10;53.80;;;;;;4992544;28;20116;-76
2021/04/14 06:36:48;;;;;;;12.77;10.38;;;8.10;53.70;;;;;;4992936;28;20473;-77
2021/04/14 06:39:17;;;;;;;11.02;9.77;;;8.30;53.80;;;;;;5008514;28;20120;-77
2021/04/14 06:42:19;;;;;;;11.25;9.93;;;8.40;53.90;;;;;;4992696;28;20033;-76
2021/04/14 06:44:57;;;;;;;10.27;9.30;;;8.50;54.10;;;;;;4977425;28;20408;-79
2021/04/14 06:47:32;;;;;;;12.00;8.70;;;8.50;53.90;;;;;;5008508;28;20029;-79
2021/04/14 06:50:12;;;;;;;12.13;9.98;;;8.60;54.00;;;;;;5026780;28;20120;-79
2021/04/14 06:53:18;;;;;;;12.07;10.82;;;8.70;54.10;;;;;;5008665;28;20025;-78
2021/04/14 06:55:50;;;;;;;10.35;9.40;;;8.80;54.20;;;;;;5026288;28;20033;-79
2021/04/14 06:58:21;;;;;;;11.55;10.35;;;9.00;54.50;;;;;;5008270;28;20087;-78
2021/04/14 07:00:55;;;;;;;13.38;9.50;;;9.10;54.70;;;;;;5008662;28;20034;-79
2021/04/14 07:03:41;;;;;;;11.52;10.43;;;9.30;54.90;;;;;;5015981;28;20515;-79
2021/04/14 07:06:13;;;;;;;10.93;9.82;;;9.40;54.90;;;;;;4992317;28;20455;-78
2021/04/14 07:08:44;;;;;;;10.73;9.60;;;9.50;54.70;;;;;;5013533;28;20064;-79
2021/04/14 07:11:20;;;;;;;11.90;10.48;;;9.70;54.90;;;;;;5007952;28;20099;-78
2021/04/14 07:13:48;;;;;;;10.55;9.55;;;9.80;54.90;;;;;;5041675;28;20025;-78
2021/04/14 07:16:25;;;;;;;10.88;9.88;;;9.90;54.90;;;;;;5026240;28;20034;-79
2021/04/14 07:18:59;;;;;;;14.85;10.30;;;9.90;54.90;;;;;;5008580;28;20036;-79
2021/04/14 07:21:54;;;;;;;13.30;11.55;;;10.00;54.90;;;;;;5024633;28;20025;-79
2021/04/14 07:24:26;;;;;;;;;;;10.00;54.80;;;;;;5024829;28;20405;-79
2021/04/14 07:27:02;;;;;;;12.38;10.55;;;10.10;54.70;;;;;;5008185;28;19913;-80
2021/04/14 07:29:28;;;;;;;11.50;10.40;;;10.20;54.80;;;;;;5025638;28;20048;-81
2021/04/14 07:32:10;;;;;;;13.65;11.65;;;10.30;54.90;;;;;;5009232;28;20030;-82
2021/04/14 07:34:39;;;;;;;11.60;10.45;;;10.30;54.90;;;;;;5008568;28;20064;-81
2021/04/14 07:37:10;;;;;;;12.18;10.85;;;10.40;54.90;;;;;;4992146;28;20408;-81
2021/04/14 07:39:54;;;;;;;12.07;10.88;;;10.50;55.00;;;;;;4976238;28;20030;-81
2021/04/14 07:42:31;;;;;;;12.18;10.52;;;10.50;55.00;;;;;;4992472;28;20034;-80
2021/04/14 07:45:15;;;;;;;12.38;11.15;;;10.60;55.00;;;;;;5025135;28;20156;-81
2021/04/14 07:47:43;;;;;;;;;;;10.70;55.00;;;;;;5025570;28;20029;-81
2021/04/14 07:50:12;;;;;;;11.20;10.10;;;10.80;55.00;;;;;;5008651;28;19923;-81
2021/04/14 07:52:38;;;;;;;11.07;10.07;;;10.80;54.80;;;;;;5025817;28;20036;-81
2021/04/14 07:55:17;;;;;;;11.40;10.30;;;10.90;54.90;;;;;;4995483;28;20033;-82
2021/04/14 07:57:44;;;;;;;12.85;11.55;;;10.90;54.90;;;;;;5027096;28;20287;-82
2021/04/14 08:00:11;;;;;;;13.60;11.70;;;11.00;55.00;;;;;;5008856;28;20033;-82
2021/04/14 08:02:38;;;;;;;11.80;10.60;;;11.00;54.90;;;;;;5008668;28;20034;-80
2021/04/14 08:05:33;;;;;;;12.88;11.52;;;11.00;54.80;;;;;;5010351;28;20037;-81
2021/04/14 08:07:59;;;;;;;12.90;10.90;;;11.00;54.70;;;;;;4992307;28;20351;-81
2021/04/14 08:10:29;;;;;;;12.80;11.50;;;11.00;54.70;;;;;;4994773;28;20045;-80
2021/04/14 08:12:59;;;;;;;12.65;11.00;;;11.00;54.70;;;;;;5012345;28;20104;-80
2021/04/14 08:15:32;;;;;;;13.38;11.13;;;11.00;54.70;;;;;;5030188;28;20104;-80
2021/04/14 08:18:17;;;;;;;11.32;10.20;;;11.10;54.90;;;;;;5011937;28;20052;-78
2021/04/14 08:20:50;;;;;;;12.50;11.20;;;11.10;54.80;;;;;;5012044;28;20029;-80
2021/04/14 08:23:26;;;;;;;13.40;12.13;;;11.20;54.90;;;;;;5012888;28;20477;-80
2021/04/14 08:25:55;;;;;;;12.65;11.25;;;11.20;54.80;;;;;;5012938;28;20893;-79
2021/04/14 08:28:56;;;;;;;12.80;11.48;;;11.30;54.90;;;;;;5028702;28;20480;-79
2021/04/14 08:31:34;;;;;;;13.55;12.25;;;11.40;54.90;;;;;;5030392;28;20511;-80
2021/04/14 08:34:12;;;;;;;12.73;11.50;;;11.50;54.90;;;;;;5012962;28;20040;-79
2021/04/14 08:37:07;;;;;;;12.25;11.02;;;11.50;54.70;;;;;;5031042;28;20068;-79
2021/04/14 08:39:36;;;;;;;14.18;11.50;;;11.60;54.80;;;;;;5032089;28;20045;-79
2021/04/14 08:42:32;;;;;;;13.80;12.40;;;11.60;54.60;;;;;;5031661;28;20124;-79
2021/04/14 08:45:09;;;;;;;13.13;11.70;;;11.70;54.70;;;;;;5004975;28;20034;-79
2021/04/14 08:47:37;;;;;;;14.70;12.05;;;11.70;54.60;;;;;;5031375;28;20171;-78
2021/04/14 08:50:12;;;;;;;12.57;11.25;;;11.70;54.40;;;;;;4995319;28;20451;-80
2021/04/14 08:52:42;;;;;;;13.27;12.02;;;11.70;54.40;;;;;;4995054;28;20029;-79
2021/04/14 08:55:09;;;;;;;13.73;12.38;;;11.80;54.50;;;;;;4994892;28;20067;-79
2021/04/14 08:57:36;;;;;;;14.77;12.20;;;11.80;54.40;;;;;;5028724;28;20032;-79
2021/04/14 09:00:05;;;;;;;13.43;12.15;;;11.80;54.30;;;;;;5027382;28;20132;-79
2021/04/14 09:02:31;;;;;;;13.63;12.32;;;11.90;54.50;;;;;;5028385;28;20061;-77
2021/04/14 09:04:58;;;;;;;14.32;12.90;;;11.90;54.50;;;;;;5027884;28;20063;-79
2021/04/14 09:07:31;;;;;;;13.77;12.30;;;11.90;54.40;;;;;;5027599;28;20033;-79
2021/04/14 09:09:58;;;;;;;13.70;12.27;;;11.90;54.30;;;;;;5010910;28;20045;-79
2021/04/14 09:12:50;;;;;;;14.50;13.07;;;12.00;54.50;;;;;;5010638;28;20044;-79
2021/04/14 09:15:18;;;;;;;14.40;12.85;;;12.00;54.30;;;;;;5028217;28;20041;-79
2021/04/14 09:17:55;;;;;;;14.55;13.07;;;12.00;54.20;;;;;;5027072;28;20026;-78
2021/04/14 09:20:24;;;;;;;15.10;12.60;;;12.10;54.30;;;;;;5028718;28;20358;-80
2021/04/14 09:23:07;;;;;;;14.25;12.88;;;12.10;54.30;;;;;;5028077;28;20059;-80
2021/04/14 09:25:41;;;;;;;14.88;13.38;;;12.10;54.20;;;;;;5010886;28;20036;-80
2021/04/14 09:28:09;;;;;;;13.93;12.50;;;12.20;54.20;;;;;;5010695;28;20083;-80
2021/04/14 09:31:19;;;;;;;14.38;12.98;;;12.20;54.20;;;;;;5029002;28;20546;-80
2021/04/14 09:33:51;;;;;;;13.63;12.40;;;12.30;54.20;;;;;;5007230;28;20041;-80
2021/04/14 09:36:43;;;;;;;13.07;11.77;;;12.30;54.10;;;;;;5010473;28;20036;-79
2021/04/14 09:39:14;;;;;;;13.40;11.73;;;12.40;54.20;;;;;;5009807;28;20477;-81
2021/04/14 09:41:41;;;;;;;14.52;13.20;;;12.40;54.10;;;;;;5010808;28;20060;-79
2021/04/14 09:44:29;;;;;;;14.25;12.73;;;12.50;54.20;;;;;;5026133;28;20029;-80
2021/04/14 09:46:57;;;;;;;13.02;11.82;;;12.60;54.30;;;;;;5027574;28;20029;-78
2021/04/14 09:49:39;;;;;;;14.10;12.75;;;12.60;54.20;;;;;;5027270;28;20034;-79
2021/04/14 09:52:31;;;;;;;14.77;13.30;;;12.70;54.20;;;;;;5010057;28;20029;-79
2021/04/14 09:55:13;;;;;;;14.57;13.07;;;12.80;54.20;;;;;;5027869;28;20036;-79
2021/04/14 09:57:42;;;;;;;14.45;12.88;;;12.90;54.30;;;;;;5026344;28;20036;-79
2021/04/14 10:00:23;;;;;;;15.30;13.90;;;13.00;54.30;;;;;;5020077;28;20056;-79
2021/04/14 10:02:58;;;;;;;13.35;12.07;;;13.10;54.40;;;;;;5026815;28;20500;-81
2021/04/14 10:05:30;;;;;;;14.45;12.93;;;13.20;54.40;;;;;;5026170;28;20041;-80
2021/04/14 10:08:00;;;;;;;14.75;13.27;;;13.30;54.40;;;;;;5026033;28;20044;-82
2021/04/14 10:10:26;;;;;;;15.15;13.07;;;13.40;54.30;;;;;;5009749;28;20041;-80
2021/04/14 10:12:53;;;;;;;13.05;11.85;;;13.60;54.60;;;;;;5026093;28;20539;-80
2021/04/14 10:15:33;;;;;;;12.02;10.93;;;13.70;54.60;;;;;;5025898;28;20025;-80
2021/04/14 10:18:05;;;;;;;12.75;11.55;;;13.80;54.60;;;;;;5006877;28;20486;-79
2021/04/14 10:20:33;;;;;;;12.18;10.98;;;13.90;54.60;;;;;;4992996;28;20033;-79
2021/04/14 10:22:59;;;;;;;12.40;11.10;;;14.00;54.70;;;;;;5026519;28;20099;-81
2021/04/14 10:25:36;;;;;;;13.20;11.90;;;14.10;54.80;;;;;;5010145;28;20033;-80
2021/04/14 10:28:14;;;;;;;13.20;11.90;;;14.10;54.70;;;;;;5009455;28;20037;-80
2021/04/14 10:30:44;;;;;;;12.50;11.30;;;14.20;54.70;;;;;;5026982;28;20048;-80
2021/04/14 10:33:18;;;;;;;12.30;11.10;;;14.20;54.60;;;;;;5027032;28;20030;-80
2021/04/14 10:35:45;;;;;;;12.77;11.68;;;14.30;54.60;;;;;;5027603;28;20532;-81
2021/04/14 10:38:13;;;;;;;12.80;11.60;;;14.40;54.70;;;;;;5027271;28;20100;-79
2021/04/14 10:40:44;;;;;;;12.90;11.60;;;14.50;54.70;;;;;;5031046;28;20389;-79
2021/04/14 10:43:20;;;;;;;13.30;11.48;;;14.50;54.50;;;;;;5007376;28;20029;-80
2021/04/14 10:46:06;;;;;;;12.38;11.18;;;14.50;54.40;;;;;;5026601;28;20017;-78
2021/04/14 10:48:37;;;;;;;13.13;11.93;;;14.50;54.30;;;;;;5008441;28;20064;-80
2021/04/14 10:51:22;;;;;;;12.45;11.20;;;14.50;54.20;;;;;;4993823;28;20033;-79
2021/04/14 10:53:54;;;;;;;13.52;12.35;;;14.50;54.20;;;;;;5026645;28;20082;-79
2021/04/14 10:56:31;;;;;;;13.50;11.55;;;14.50;54.20;;;;;;5009390;28;20040;-80
2021/04/14 10:59:04;;;;;;;12.82;11.50;;;14.50;54.20;;;;;;5010991;28;20034;-79
2021/04/14 11:01:42;;;;;;;13.38;11.65;;;14.60;54.40;;;;;;5000585;28;20057;-79
2021/04/14 11:04:34;;;;;;;13.20;10.63;;;14.70;54.40;;;;;;5024052;28;20040;-79
2021/04/14 11:07:23;;;;;;;14.93;11.48;;;14.70;54.20;;;;;;5006432;28;20444;-80
2021/04/14 11:09:54;;;;;;;12.32;11.13;;;14.80;54.30;;;;;;5023358;28;20064;-79
2021/04/14 11:12:26;;;;;;;12.35;11.25;;;14.80;54.10;;;;;;5008560;28;20046;-79
2021/04/14 11:15:07;;;;;;;12.13;10.93;;;14.90;54.20;;;;;;4996534;28;20026;-80
2021/04/14 11:17:34;;;;;;;14.85;13.45;;;15.00;54.30;;;;;;5005813;28;20489;-84
2021/04/14 11:20:01;;;;;;;16.33;14.82;;;15.00;53.80;;;;;;5025396;28;20246;-79
2021/04/14 11:22:40;;;;;;;16.10;14.60;;;15.00;53.10;;;;;;5024454;28;20033;-79
2021/04/14 11:25:07;;;;;;;17.58;15.73;;;15.10;52.90;;;;;;5008916;28;20888;-79
2021/04/14 11:27:33;;;;;;;17.67;16.10;;;15.10;53.10;;;;;;5008046;28;20033;-79
2021/04/14 11:30:13;;;;;;;17.98;16.23;;;15.00;53.00;;;;;;5008315;28;20124;-79
2021/04/14 11:32:40;;;;;;;17.77;16.17;;;15.10;53.30;;;;;;5021481;28;20406;-80
2021/04/14 11:35:09;;;;;;;19.02;16.00;;;15.00;53.20;;;;;;4988794;28;20026;-78
2021/04/14 11:37:35;;;;;;;17.33;15.57;;;15.00;53.30;;;;;;4997602;28;20036;-81
2021/04/14 11:40:06;;;;;;;18.05;16.20;;;15.00;53.90;;;;;;5026989;28;20030;-79
2021/04/14 11:42:53;;;;;;;17.85;16.00;;;15.00;53.30;;;;;;5030822;28;20029;-80
2021/04/14 11:45:33;;;;;;;17.90;15.07;;;15.10;53.50;;;;;;5013375;28;20430;-82
2021/04/14 11:48:28;;;;;;;17.63;15.98;;;15.20;53.60;;;;;;4996806;28;20052;-80
2021/04/14 11:50:54;;;;;;;17.10;15.27;;;15.30;53.60;;;;;;5030751;28;20199;-79
2021/04/14 11:53:26;;;;;;;17.20;15.52;;;15.40;53.70;;;;;;5013309;28;20041;-78
2021/04/14 11:55:53;;;;;;;16.90;15.40;;;15.40;53.50;;;;;;5012867;28;20103;-80
2021/04/14 11:58:25;;;;;;;15.93;14.52;;;15.60;53.70;;;;;;5013866;28;20504;-79
2021/04/14 12:00:52;;;;;;;16.27;14.63;;;15.70;53.60;;;;;;5029790;28;20026;-79
2021/04/14 12:03:30;;;;;;;15.60;14.13;;;15.70;53.50;;;;;;5031707;28;20493;-79
2021/04/14 12:05:58;;;;;;;15.13;13.73;;;15.90;53.80;;;;;;5031985;28;20052;-78
2021/04/14 12:08:25;;;;;;;14.30;13.00;;;16.00;53.80;;;;;;5030425;28;20045;-77
2021/04/14 12:10:52;;;;;;;14.63;13.23;;;16.20;53.90;;;;;;5014745;28;20053;-81
2021/04/14 12:13:21;;;;;;;14.07;12.77;;;16.40;54.00;;;;;;4988980;28;20022;-79
2021/04/14 12:15:51;;;;;;;15.50;13.93;;;16.50;53.90;;;;;;5004253;28;20037;-82
2021/04/14 12:18:17;;;;;;;14.55;13.20;;;16.70;53.90;;;;;;5019384;28;20339;-80
2021/04/14 12:20:43;;;;;;;15.10;13.60;;;16.70;53.60;;;;;;5013008;28;20278;-81
2021/04/14 12:23:10;;;;;;;14.02;12.63;;;16.80;53.60;;;;;;5028653;28;20029;-81
2021/04/14 12:25:36;;;;;;;13.80;12.60;;;16.80;53.50;;;;;;5012130;28;20041;-76
2021/04/14 12:28:02;;;;;;;13.90;12.55;;;16.80;53.40;;;;;;5007555;28;20065;-78
2021/04/14 12:30:28;;;;;;;14.13;12.63;;;16.80;53.40;;;;;;4987312;28;20046;-83
2021/04/14 12:32:54;;;;;;;13.90;12.57;;;16.80;53.30;;;;;;5018584;28;20041;-82
2021/04/14 12:35:23;;;;;;;14.68;12.27;;;16.80;53.20;;;;;;5026233;28;20069;-79
2021/04/14 12:37:50;;;;;;;13.18;11.85;;;16.80;53.10;;;;;;4992248;28;20297;-80
2021/04/14 12:40:16;;;;;;;14.27;12.75;;;16.80;53.00;;;;;;5009154;28;20522;-83
2021/04/14 12:42:42;;;;;;;11.50;9.98;;;16.80;52.90;;;;;;5015606;28;20044;-83
2021/04/14 12:45:34;;;;;;;11.13;9.90;;;16.70;52.90;;;;;;5029434;28;20031;-82
2021/04/14 12:48:00;;;;;;;11.63;10.48;;;16.80;53.40;;;;;;5018262;28;20084;-82
2021/04/14 12:50:26;;;;;;;11.02;9.60;;;16.80;53.70;;;;;;5010898;28;20060;-87
2021/04/14 12:52:55;;;;;;;10.77;9.68;;;16.90;54.00;;;;;;5010247;28;20037;-83
2021/04/14 12:55:38;;;;;;;11.13;9.50;;;17.00;54.30;;;;;;5030369;28;20060;-83
2021/04/14 12:58:07;;;;;;;10.73;9.63;;;17.10;54.60;;;;;;5028217;28;20442;-81
2021/04/14 13:00:36;;;;;;;11.13;10.07;;;17.30;54.90;;;;;;5023644;28;20045;-79
2021/04/14 13:03:27;;;;;;;10.60;9.63;;;17.50;55.00;;;;;;5018630;28;20112;-79
2021/04/14 13:05:59;;;;;;;10.35;9.35;;;17.60;54.90;;;;;;5028474;28;20039;-79
2021/04/14 13:08:33;;;;;;;10.63;9.63;;;17.60;54.70;;;;;;5004417;28;20044;-83
2021/04/14 13:11:20;;;;;;;11.65;10.43;;;17.70;54.80;;;;;;4990530;28;20057;-81
2021/04/14 13:13:46;;;;;;;12.27;10.18;;;17.70;54.70;;;;;;4981455;28;20066;-82
2021/04/14 13:16:48;;;;;;;10.60;9.60;;;17.60;54.50;;;;;;4999636;28;20069;-80
2021/04/14 13:19:14;;;;;;;10.13;9.23;;;17.50;54.30;;;;;;4976593;28;20049;-81
2021/04/14 13:21:55;;;;;;;11.27;10.13;;;17.50;54.30;;;;;;5007044;28;20088;-81
2021/04/14 13:24:38;;;;;;;10.68;9.57;;;17.40;54.10;;;;;;5005499;28;20033;-79
2021/04/14 13:27:13;;;;;;;9.85;9.05;;;17.50;54.30;;;;;;5007403;28;20709;-81
2021/04/14 13:29:51;;;;;;;9.48;8.63;;;17.50;54.30;;;;;;5006514;28;20085;-78
2021/04/14 13:32:22;;;;;;;10.57;9.57;;;17.50;54.20;;;;;;5007677;28;20026;-80
2021/04/14 13:34:54;;;;;;;11.45;10.32;;;17.50;54.20;;;;;;5008282;28;20060;-81
2021/04/14 13:37:25;;;;;;;10.52;9.52;;;17.60;54.20;;;;;;5007797;28;20393;-81
2021/04/14 13:39:59;;;;;;;11.32;10.23;;;17.70;54.30;;;;;;4990821;28;20030;-82
2021/04/14 13:42:37;;;;;;;10.75;9.75;;;17.90;54.40;;;;;;5008646;28;20042;-82